createdAt,value
2023-01-27T00:00:55.813Z,99338.41
2023-01-27T00:03:22.594Z,99335.69
2023-01-27T00:05:49.676Z,99344.25
2023-01-27T00:08:17.135Z,99340.75
2023-01-27T00:10:43.667Z,99339.06
2023-01-27T00:13:27.699Z,99348.63
2023-01-27T00:15:55.135Z,99347.03
2023-01-27T00:18:31.921Z,99331.59
2023-01-27T00:21:16.744Z,99338.53
2023-01-27T00:24:01.409Z,99340.16
2023-01-27T00:26:27.943Z,99337.50
2023-01-27T00:28:54.401Z,99337.50
2023-01-27T00:31:39.326Z,99330.66
2023-01-27T00:34:11.458Z,99323.72
2023-01-27T00:36:39.977Z,99328.19
2023-01-27T00:39:07.951Z,99324.69
2023-01-27T00:41:39.117Z,99332.56
2023-01-27T00:44:06.146Z,99323.03
2023-01-27T00:46:33.442Z,99334.34
2023-01-27T00:49:15.925Z,99331.59
2023-01-27T00:52:01.447Z,99329.88
2023-01-27T00:54:29.164Z,99340.31
2023-01-27T00:56:55.627Z,99342.91
2023-01-27T00:59:23.082Z,99332.50
2023-01-27T01:01:49.568Z,99328.25
2023-01-27T01:04:19.600Z,99333.59
2023-01-27T01:06:46.096Z,99334.56
2023-01-27T01:09:12.623Z,99331.97
2023-01-27T01:11:39.077Z,99336.28
2023-01-27T01:14:05.546Z,99335.28
2023-01-27T01:16:33.678Z,99337.00
2023-01-27T01:19:00.187Z,99335.38
2023-01-27T01:21:29.966Z,99341.50
2023-01-27T01:23:56.492Z,99341.56
2023-01-27T01:26:22.991Z,99350.25
2023-01-27T01:28:49.656Z,99348.38
2023-01-27T01:31:18.538Z,99349.22
2023-01-27T01:33:46.001Z,99348.31
2023-01-27T01:36:18.918Z,99350.91
2023-01-27T01:38:45.626Z,99350.78
2023-01-27T01:41:16.736Z,99363.88
2023-01-27T01:43:43.603Z,99359.56
2023-01-27T01:46:11.809Z,99362.16
2023-01-27T01:49:02.889Z,99363.66
2023-01-27T01:51:39.384Z,99360.25
2023-01-27T01:54:23.863Z,99359.50
2023-01-27T01:56:55.830Z,99368.13
2023-01-27T01:59:30.323Z,99363.88
2023-01-27T02:02:07.186Z,99368.25
2023-01-27T02:04:42.909Z,99367.38
2023-01-27T02:07:19.946Z,99363.94
2023-01-27T02:09:46.713Z,99369.97
2023-01-27T02:12:13.280Z,99366.47
2023-01-27T02:14:41.240Z,99371.69
2023-01-27T02:17:09.199Z,99364.69
2023-01-27T02:19:54.101Z,99366.41
2023-01-27T02:22:43.183Z,99363.81
2023-01-27T02:25:23.614Z,99359.50
2023-01-27T02:27:53.178Z,99361.13
2023-01-27T02:30:19.946Z,99363.81
2023-01-27T02:32:46.574Z,99360.31
2023-01-27T02:35:36.137Z,99369.91
2023-01-27T02:38:03.919Z,99369.00
2023-01-27T02:40:32.007Z,99370.72
2023-01-27T02:42:59.731Z,99371.56
2023-01-27T02:45:26.688Z,99375.88
2023-01-27T02:47:56.508Z,99370.66
2023-01-27T02:50:29.323Z,99375.09
2023-01-27T02:52:59.004Z,99379.50
2023-01-27T02:55:25.488Z,99380.25
2023-01-27T02:57:51.953Z,99382.84
2023-01-27T03:00:18.516Z,99384.63
2023-01-27T03:02:45.072Z,99380.31
2023-01-27T03:05:13.315Z,99391.63
2023-01-27T03:07:40.048Z,99388.13
2023-01-27T03:10:07.014Z,99397.72
2023-01-27T03:12:33.521Z,99398.66
2023-01-27T03:15:18.549Z,99398.59
2023-01-27T03:18:03.877Z,99393.41
2023-01-27T03:20:30.579Z,99396.06
2023-01-27T03:22:57.119Z,99399.56
2023-01-27T03:25:23.672Z,99398.66
2023-01-27T03:27:51.261Z,99401.38
2023-01-27T03:30:17.856Z,99402.28
2023-01-27T03:32:46.412Z,99403.97
2023-01-27T03:35:20.297Z,99411.88
2023-01-27T03:38:05.365Z,99407.47
2023-01-27T03:40:50.422Z,99411.88
2023-01-27T03:43:35.814Z,99417.06
2023-01-27T03:46:20.729Z,99422.09
2023-01-27T03:48:52.861Z,99414.22
2023-01-27T03:51:21.938Z,99416.00
2023-01-27T03:53:48.779Z,99420.41
2023-01-27T03:56:16.473Z,99418.47
2023-01-27T03:58:43.658Z,99420.31
2023-01-27T04:01:16.678Z,99422.28
2023-01-27T04:04:02.119Z,99413.47
2023-01-27T04:06:49.523Z,99419.66
2023-01-27T04:09:28.024Z,99417.22
2023-01-27T04:11:56.553Z,99414.59
2023-01-27T04:14:31.927Z,99412.00
2023-01-27T04:17:04.217Z,99410.41
2023-01-27T04:19:31.242Z,99407.06
2023-01-27T04:21:59.112Z,99418.47
2023-01-27T04:24:26.435Z,99422.84
2023-01-27T04:26:57.282Z,99417.63
2023-01-27T04:29:26.186Z,99420.38
2023-01-27T04:31:53.193Z,99418.53
2023-01-27T04:34:19.958Z,99415.94
2023-01-27T04:36:47.576Z,99419.28
2023-01-27T04:39:16.467Z,99429.72
2023-01-27T04:41:43.608Z,99436.53
2023-01-27T04:44:10.509Z,99432.13
2023-01-27T04:46:37.735Z,99434.75
2023-01-27T04:49:05.559Z,99440.91
2023-01-27T04:51:32.990Z,99434.75
2023-01-27T04:54:00.048Z,99438.09
2023-01-27T04:56:38.418Z,99439.94
2023-01-27T04:59:07.570Z,99447.75
2023-01-27T05:01:34.399Z,99442.50
2023-01-27T05:04:00.887Z,99438.84
2023-01-27T05:06:27.687Z,99454.41
2023-01-27T05:08:54.670Z,99456.13
2023-01-27T05:11:21.613Z,99452.63
2023-01-27T05:13:48.762Z,99457.09
2023-01-27T05:16:20.964Z,99462.28
2023-01-27T05:18:49.777Z,99462.44
2023-01-27T05:21:18.859Z,99455.56
2023-01-27T05:23:45.961Z,99455.56
2023-01-27T05:26:20.917Z,99457.22
2023-01-27T05:28:48.863Z,99466.00
2023-01-27T05:31:21.421Z,99466.94
2023-01-27T05:33:51.014Z,99466.00
2023-01-27T05:36:19.696Z,99462.56
2023-01-27T05:38:46.680Z,99468.78
2023-01-27T05:41:15.082Z,99467.06
2023-01-27T05:43:43.066Z,99475.91
2023-01-27T05:46:16.822Z,99472.41
2023-01-27T05:48:48.453Z,99488.91
2023-01-27T05:51:16.364Z,99480.28
2023-01-27T05:53:43.855Z,99479.38
2023-01-27T05:56:12.404Z,99485.50
2023-01-27T05:58:39.506Z,99489.81
2023-01-27T06:01:20.231Z,99492.47
2023-01-27T06:03:47.601Z,99491.53
2023-01-27T06:06:16.978Z,99499.19
2023-01-27T06:08:43.700Z,99497.56
2023-01-27T06:11:10.281Z,99494.88
2023-01-27T06:13:38.738Z,99507.16
2023-01-27T06:16:08.147Z,99501.13
2023-01-27T06:18:35.378Z,99506.41
2023-01-27T06:21:03.671Z,99511.59
2023-01-27T06:23:30.246Z,99509.97
2023-01-27T06:26:00.743Z,99514.34
2023-01-27T06:28:29.483Z,99514.53
2023-01-27T06:31:06.291Z,99511.81
2023-01-27T06:33:32.826Z,99512.75
2023-01-27T06:36:04.834Z,99514.66
2023-01-27T06:38:31.514Z,99514.66
2023-01-27T06:40:58.129Z,99516.44
2023-01-27T06:43:24.711Z,99522.53
2023-01-27T06:45:51.998Z,99522.53
2023-01-27T06:48:19.156Z,99522.53
2023-01-27T06:50:46.018Z,99515.69
2023-01-27T06:53:12.526Z,99519.13
2023-01-27T06:55:41.853Z,99529.53
2023-01-27T06:58:10.649Z,99525.34
2023-01-27T07:00:38.394Z,99538.31
2023-01-27T07:03:05.525Z,99537.41
2023-01-27T07:05:34.275Z,99541.06
2023-01-27T07:08:01.083Z,99537.56
2023-01-27T07:10:27.961Z,99535.06
2023-01-27T07:13:04.856Z,99541.22
2023-01-27T07:15:32.194Z,99543.81
2023-01-27T07:17:59.745Z,99543.00
2023-01-27T07:20:29.297Z,99549.19
2023-01-27T07:22:59.685Z,99552.59
2023-01-27T07:25:26.986Z,99555.13
2023-01-27T07:27:53.822Z,99554.25
2023-01-27T07:30:20.354Z,99556.03
2023-01-27T07:32:46.870Z,99552.59
2023-01-27T07:35:13.345Z,99556.03
2023-01-27T07:37:39.840Z,99560.41
2023-01-27T07:40:06.982Z,99561.25
2023-01-27T07:42:33.531Z,99562.13
2023-01-27T07:45:00.039Z,99567.34
2023-01-27T07:47:26.764Z,99570.91
2023-01-27T07:49:53.256Z,99578.81
2023-01-27T07:52:19.748Z,99575.53
2023-01-27T07:54:49.370Z,99577.31
2023-01-27T07:57:16.045Z,99579.25
2023-01-27T07:59:42.584Z,99584.59
2023-01-27T08:02:10.342Z,99578.56
2023-01-27T08:04:50.877Z,99583.84
2023-01-27T08:07:18.764Z,99579.69
2023-01-27T08:09:45.320Z,99579.81
2023-01-27T08:12:11.835Z,99581.63
2023-01-27T08:14:38.266Z,99583.41
2023-01-27T08:17:04.684Z,99583.41
2023-01-27T08:19:31.182Z,99586.81
2023-01-27T08:21:57.628Z,99592.78
2023-01-27T08:24:24.157Z,99593.63
2023-01-27T08:26:50.609Z,99591.91
2023-01-27T08:29:17.584Z,99596.16
2023-01-27T08:31:44.106Z,99605.69
2023-01-27T08:34:13.131Z,99607.41
2023-01-27T08:36:43.510Z,99611.63
2023-01-27T08:39:11.188Z,99611.63
2023-01-27T08:41:38.463Z,99610.97
2023-01-27T08:44:05.021Z,99614.53
2023-01-27T08:46:31.477Z,99617.28
2023-01-27T08:48:57.996Z,99619.13
2023-01-27T08:51:24.476Z,99614.75
2023-01-27T08:53:51.031Z,99620.84
2023-01-27T08:56:17.520Z,99616.69
2023-01-27T08:58:48.291Z,99625.53
2023-01-27T09:01:16.149Z,99627.63
2023-01-27T09:03:42.792Z,99626.13
2023-01-27T09:06:11.901Z,99634.91
2023-01-27T09:08:39.798Z,99628.94
2023-01-27T09:11:14.816Z,99632.66
2023-01-27T09:13:41.567Z,99638.78
2023-01-27T09:16:08.763Z,99637.88
2023-01-27T09:18:35.928Z,99639.44
2023-01-27T09:21:06.441Z,99639.31
2023-01-27T09:23:35.902Z,99644.59
2023-01-27T09:26:02.396Z,99653.59
2023-01-27T09:28:28.957Z,99652.78
2023-01-27T09:30:59.236Z,99656.34
2023-01-27T09:33:26.453Z,99652.97
2023-01-27T09:35:59.762Z,99655.81
2023-01-27T09:38:31.482Z,99655.00
2023-01-27T09:41:03.873Z,99656.47
2023-01-27T09:44:01.735Z,99663.34
2023-01-27T09:46:37.319Z,99661.56
2023-01-27T09:49:28.682Z,99657.94
2023-01-27T09:52:10.008Z,99668.44
2023-01-27T09:55:18.152Z,99667.47
2023-01-27T09:57:50.734Z,99665.44
2023-01-27T10:00:17.129Z,99674.09
2023-01-27T10:03:23.578Z,99674.09
2023-01-27T10:06:11.232Z,99672.16
2023-01-27T10:09:07.088Z,99671.28
2023-01-27T10:11:59.241Z,99676.50
2023-01-27T10:14:36.082Z,99670.44
2023-01-27T10:17:24.225Z,99673.19
2023-01-27T10:20:25.211Z,99668.88
2023-01-27T10:23:13.860Z,99668.81
2023-01-27T10:25:50.236Z,99669.78
2023-01-27T10:28:22.305Z,99674.16
2023-01-27T10:30:51.882Z,99676.63
2023-01-27T10:33:21.005Z,99676.69
2023-01-27T10:36:00.191Z,99672.38
2023-01-27T10:38:37.553Z,99675.94
2023-01-27T10:41:13.990Z,99671.47
2023-01-27T10:43:59.910Z,99676.06
2023-01-27T10:46:44.693Z,99670.72
2023-01-27T10:49:24.322Z,99664.72
2023-01-27T10:52:30.153Z,99661.44
2023-01-27T10:55:07.804Z,99654.69
2023-01-27T10:57:49.477Z,99660.91
2023-01-27T11:03:23.533Z,99655.13
2023-01-27T11:05:57.987Z,99651.69
2023-01-27T11:08:33.002Z,99654.38
2023-01-27T11:11:21.943Z,99646.63
2023-01-27T11:13:49.489Z,99642.22
2023-01-27T11:16:19.516Z,99643.94
2023-01-27T11:18:54.045Z,99638.88
2023-01-27T11:21:28.060Z,99638.00
2023-01-27T11:23:57.086Z,99638.31
2023-01-27T11:26:26.727Z,99642.78
2023-01-27T11:29:08.215Z,99646.16
2023-01-27T11:31:48.659Z,99638.31
2023-01-27T11:34:35.614Z,99643.09
2023-01-27T11:37:26.425Z,99650.91
2023-01-27T11:39:53.344Z,99644.03
2023-01-27T11:42:29.164Z,99643.34
2023-01-27T11:44:59.753Z,99645.06
2023-01-27T11:47:40.237Z,99646.72
2023-01-27T11:50:08.957Z,99645.69
2023-01-27T11:52:35.477Z,99636.59
2023-01-27T11:55:08.316Z,99645.41
2023-01-27T11:57:41.275Z,99646.44
2023-01-27T12:00:25.328Z,99643.00
2023-01-27T12:03:03.438Z,99643.97
2023-01-27T12:05:42.596Z,99641.28
2023-01-27T12:08:09.284Z,99638.94
2023-01-27T12:10:43.585Z,99649.13
2023-01-27T12:13:18.037Z,99643.91
2023-01-27T12:15:52.106Z,99643.78
2023-01-27T12:18:19.040Z,99647.47
2023-01-27T12:20:48.597Z,99641.06
2023-01-27T12:23:24.365Z,99646.28
2023-01-27T12:25:57.940Z,99646.16
2023-01-27T12:28:40.151Z,99643.22
2023-01-27T12:31:29.339Z,99638.00
2023-01-27T12:34:28.462Z,99631.84
2023-01-27T12:36:56.215Z,99640.75
2023-01-27T12:39:40.950Z,99643.94
2023-01-27T12:42:47.134Z,99638.97
2023-01-27T12:45:23.065Z,99639.78
2023-01-27T12:48:00.128Z,99637.06
2023-01-27T12:50:29.805Z,99632.69
2023-01-27T12:53:13.969Z,99641.97
2023-01-27T12:55:46.436Z,99630.84
2023-01-27T12:58:36.200Z,99632.34
2023-01-27T13:01:26.798Z,99637.34
2023-01-27T13:04:15.311Z,99634.72
2023-01-27T13:06:47.632Z,99636.50
2023-01-27T13:09:50.556Z,99632.03
2023-01-27T13:12:21.695Z,99628.47
2023-01-27T13:14:55.253Z,99635.41
2023-01-27T13:17:36.893Z,99632.03
2023-01-27T13:20:26.900Z,99634.72
2023-01-27T13:23:14.724Z,99635.34
2023-01-27T13:25:49.930Z,99642.47
2023-01-27T13:28:24.033Z,99640.56
2023-01-27T13:30:56.528Z,99638.66
2023-01-27T13:34:07.481Z,99642.03
2023-01-27T13:36:37.858Z,99644.75
2023-01-27T13:39:04.285Z,99657.84
2023-01-27T13:41:47.617Z,99653.59
2023-01-27T13:44:49.680Z,99651.81
2023-01-27T13:47:29.052Z,99650.81
2023-01-27T13:50:08.041Z,99655.88
2023-01-27T13:52:35.785Z,99655.00
2023-01-27T13:55:02.308Z,99661.56
2023-01-27T13:58:04.153Z,99663.22
2023-01-27T14:00:39.969Z,99664.72
2023-01-27T14:03:19.943Z,99665.50
2023-01-27T14:06:05.625Z,99659.66
2023-01-27T14:09:00.089Z,99659.50
2023-01-27T14:12:02.420Z,99665.50
2023-01-27T14:14:56.190Z,99664.72
2023-01-27T14:17:34.295Z,99661.94
2023-01-27T14:20:15.401Z,99671.34
2023-01-27T14:22:55.058Z,99679.31
2023-01-27T14:25:35.054Z,99673.97
2023-01-27T14:28:12.136Z,99680.19
2023-01-27T14:30:42.729Z,99682.81
2023-01-27T14:33:34.967Z,99681.25
2023-01-27T14:36:10.826Z,99681.16
2023-01-27T14:39:12.082Z,99682.97
2023-01-27T14:45:04.261Z,99689.44
2023-01-27T14:47:42.869Z,99692.72
2023-01-27T14:50:32.754Z,99690.81
2023-01-27T14:53:00.039Z,99696.03
2023-01-27T14:55:58.458Z,99697.63
2023-01-27T14:58:24.884Z,99686.94
2023-01-27T15:01:09.727Z,99698.81
2023-01-27T15:03:48.667Z,99711.06
2023-01-27T15:06:33.813Z,99705.09
2023-01-27T15:09:27.465Z,99711.28
2023-01-27T15:12:11.883Z,99712.03
2023-01-27T15:14:57.808Z,99720.44
2023-01-27T15:18:12.295Z,99725.59
2023-01-27T15:21:00.661Z,99728.03
2023-01-27T15:23:27.091Z,99729.97
2023-01-27T15:25:57.657Z,99729.91
2023-01-27T15:28:32.125Z,99740.34
2023-01-27T15:31:05.985Z,99747.19
2023-01-27T15:33:55.289Z,99751.44
2023-01-27T15:36:27.711Z,99746.78
2023-01-27T15:39:09.444Z,99759.19
2023-01-27T15:41:39.289Z,99751.44
2023-01-27T15:44:16.947Z,99749.34
2023-01-27T15:46:51.777Z,99754.41
2023-01-27T15:49:23.003Z,99757.91
2023-01-27T15:51:53.136Z,99754.41
2023-01-27T15:54:26.682Z,99753.72
2023-01-27T15:56:55.133Z,99759.34
2023-01-27T15:59:30.398Z,99760.38
2023-01-27T16:02:05.022Z,99762.09
2023-01-27T16:04:33.374Z,99757.63
2023-01-27T16:07:05.865Z,99761.69
2023-01-27T16:09:39.992Z,99765.28
2023-01-27T16:12:30.878Z,99764.22
2023-01-27T16:15:15.811Z,99772.88
2023-01-27T16:18:06.984Z,99770.50
2023-01-27T16:20:39.516Z,99768.72
2023-01-27T16:23:42.155Z,99778.16
2023-01-27T16:26:22.619Z,99772.13
2023-01-27T16:28:55.529Z,99777.44
2023-01-27T16:31:30.623Z,99773.94
2023-01-27T16:34:02.895Z,99773.84
2023-01-27T16:36:36.606Z,99767.00
2023-01-27T16:39:23.340Z,99779.31
2023-01-27T16:41:59.982Z,99772.13
2023-01-27T16:45:00.584Z,99776.44
2023-01-27T16:47:32.598Z,99779.72
2023-01-27T16:50:00.497Z,99777.94
2023-01-27T16:52:41.578Z,99776.97
2023-01-27T16:55:21.889Z,99786.44
2023-01-27T16:57:49.595Z,99794.25
2023-01-27T17:00:22.015Z,99790.00
2023-01-27T17:02:51.471Z,99795.16
2023-01-27T17:05:19.802Z,99795.06
2023-01-27T17:08:03.755Z,99795.72
2023-01-27T17:10:34.697Z,99805.50
2023-01-27T17:13:04.830Z,99808.25
2023-01-27T17:15:38.099Z,99815.25
2023-01-27T17:18:11.573Z,99816.06
2023-01-27T17:20:42.883Z,99811.50
2023-01-27T17:23:21.390Z,99813.81
2023-01-27T17:25:49.653Z,99819.16
2023-01-27T17:28:23.116Z,99813.13
2023-01-27T17:30:50.690Z,99821.84
2023-01-27T17:33:24.345Z,99818.53
2023-01-27T17:35:57.102Z,99828.97
2023-01-27T17:38:36.055Z,99824.53
2023-01-27T17:41:05.826Z,99829.66
2023-01-27T17:43:41.705Z,99825.19
2023-01-27T17:46:16.214Z,99831.81
2023-01-27T17:48:52.234Z,99826.63
2023-01-27T17:51:21.929Z,99830.13
2023-01-27T17:53:50.538Z,99835.31
2023-01-27T17:56:29.419Z,99837.94
2023-01-27T17:59:06.001Z,99834.50
2023-01-27T18:01:33.910Z,99830.94
2023-01-27T18:04:06.166Z,99835.31
2023-01-27T18:06:33.275Z,99836.44
2023-01-27T18:09:14.663Z,99836.44
2023-01-27T18:12:01.389Z,99843.44
2023-01-27T18:14:33.634Z,99840.09
2023-01-27T18:17:24.429Z,99851.34
2023-01-27T18:19:53.328Z,99847.00
2023-01-27T18:22:30.361Z,99852.22
2023-01-27T18:25:00.722Z,99847.91
2023-01-27T18:27:31.602Z,99852.31
2023-01-27T18:30:19.090Z,99856.72
2023-01-27T18:32:50.217Z,99857.78
2023-01-27T18:35:26.596Z,99852.41
2023-01-27T18:38:03.951Z,99858.41
2023-01-27T18:40:37.131Z,99849.81
2023-01-27T18:43:05.381Z,99848.72
2023-01-27T18:45:31.846Z,99855.81
2023-01-27T18:47:59.519Z,99861.13
2023-01-27T18:50:27.096Z,99851.53
2023-01-27T18:52:54.544Z,99859.22
2023-01-27T18:55:26.923Z,99854.91
2023-01-27T18:57:59.324Z,99857.53
2023-01-27T19:00:38.074Z,99857.44
2023-01-27T19:03:11.493Z,99858.25
2023-01-27T19:05:37.995Z,99862.50
2023-01-27T19:08:05.014Z,99865.13
2023-01-27T19:10:34.516Z,99862.59
2023-01-27T19:13:02.940Z,99870.31
2023-01-27T19:15:35.091Z,99872.94
2023-01-27T19:18:09.324Z,99879.63
2023-01-27T19:20:38.939Z,99875.31
2023-01-27T19:23:05.490Z,99868.88
2023-01-27T19:25:31.957Z,99873.09
2023-01-27T19:28:04.472Z,99878.16
2023-01-27T19:30:38.454Z,99872.13
2023-01-27T19:33:18.870Z,99875.56
2023-01-27T19:35:48.532Z,99880.56
2023-01-27T19:38:22.831Z,99879.59
2023-01-27T19:40:49.511Z,99876.38
2023-01-27T19:43:16.305Z,99879.69
2023-01-27T19:45:45.621Z,99880.03
2023-01-27T19:48:38.499Z,99882.47
2023-01-27T19:51:28.151Z,99886.88
2023-01-27T19:53:57.828Z,99884.09
2023-01-27T19:56:28.866Z,99882.94
2023-01-27T19:58:55.545Z,99892.47
2023-01-27T20:01:24.807Z,99890.19
2023-01-27T20:03:53.135Z,99884.09
2023-01-27T20:06:25.252Z,99886.78
2023-01-27T20:08:57.032Z,99888.97
2023-01-27T20:11:35.752Z,99877.41
2023-01-27T20:14:12.650Z,99885.09
2023-01-27T20:16:39.576Z,99887.41
2023-01-27T20:19:06.538Z,99888.66
2023-01-27T20:21:34.477Z,99885.91
2023-01-27T20:24:01.827Z,99887.41
2023-01-27T20:26:30.558Z,99892.63
2023-01-27T20:28:57.007Z,99887.19
2023-01-27T20:31:23.845Z,99895.81
2023-01-27T20:33:50.667Z,99889.63
2023-01-27T20:36:20.395Z,99891.44
2023-01-27T20:38:47.133Z,99900.22
2023-01-27T20:41:19.637Z,99894.94
2023-01-27T20:43:47.012Z,99894.75
2023-01-27T20:46:17.249Z,99902.41
2023-01-27T20:48:43.981Z,99899.06
2023-01-27T20:51:13.459Z,99897.34
2023-01-27T20:53:45.848Z,99902.56
2023-01-27T20:56:30.397Z,99904.69
2023-01-27T20:58:56.944Z,99900.97
2023-01-27T21:01:23.786Z,99902.31
2023-01-27T21:03:50.870Z,99897.78
2023-01-27T21:06:19.814Z,99904.84
2023-01-27T21:08:49.786Z,99905.66
2023-01-27T21:11:18.548Z,99907.38
2023-01-27T21:13:45.365Z,99902.97
2023-01-27T21:16:12.369Z,99902.09
2023-01-27T21:18:39.012Z,99902.09
2023-01-27T21:21:06.080Z,99902.97
2023-01-27T21:23:33.975Z,99905.50
2023-01-27T21:26:09.624Z,99895.09
2023-01-27T21:28:36.460Z,99897.69
2023-01-27T21:31:07.980Z,99899.28
2023-01-27T21:33:36.444Z,99891.66
2023-01-27T21:36:03.974Z,99893.44
2023-01-27T21:38:31.380Z,99902.25
2023-01-27T21:41:09.829Z,99898.75
2023-01-27T21:43:55.317Z,99899.56
2023-01-27T21:46:21.890Z,99898.66
2023-01-27T21:48:48.454Z,99903.88
2023-01-27T21:51:15.121Z,99897.56
2023-01-27T21:53:41.988Z,99909.09
2023-01-27T21:56:10.733Z,99895.25
2023-01-27T21:58:37.607Z,99896.88
2023-01-27T22:01:14.071Z,99896.88
2023-01-27T22:03:44.362Z,99891.47
2023-01-27T22:06:10.889Z,99894.06
2023-01-27T22:08:37.465Z,99899.28
2023-01-27T22:11:12.541Z,99897.50
2023-01-27T22:13:39.463Z,99895.09
2023-01-27T22:16:06.610Z,99889.59
2023-01-27T22:18:33.360Z,99889.59
2023-01-27T22:21:03.007Z,99885.94
2023-01-27T22:23:32.129Z,99879.34
2023-01-27T22:25:58.582Z,99883.66
2023-01-27T22:31:11.801Z,99889.75
2023-01-27T22:33:38.255Z,99887.28
2023-01-27T22:36:05.463Z,99890.56
2023-01-27T22:38:32.020Z,99889.69
2023-01-27T22:40:59.173Z,99899.22
2023-01-27T22:43:25.934Z,99902.63
2023-01-27T22:46:00.545Z,99892.22
2023-01-27T22:48:30.293Z,99899.94
2023-01-27T22:50:59.550Z,99894.75
2023-01-27T22:53:26.019Z,99902.63
2023-01-27T22:55:59.308Z,99891.16
2023-01-27T22:58:26.733Z,99887.75
2023-01-27T23:00:53.775Z,99891.16
2023-01-27T23:03:21.228Z,99888.47
2023-01-27T23:05:51.085Z,99886.69
2023-01-27T23:08:20.901Z,99885.06
2023-01-27T23:10:48.313Z,99883.44
2023-01-27T23:13:14.956Z,99881.63
2023-01-27T23:15:41.481Z,99875.38
2023-01-27T23:18:11.329Z,99879.56
2023-01-27T23:20:44.670Z,99883.19
2023-01-27T23:23:14.892Z,99873.59
2023-01-27T23:25:46.350Z,99876.06
2023-01-27T23:28:15.203Z,99875.19
2023-01-27T23:30:49.056Z,99877.78
2023-01-27T23:33:17.591Z,99869.97
2023-01-27T23:35:44.603Z,99862.97
2023-01-27T23:38:26.343Z,99869.97
2023-01-27T23:41:14.395Z,99868.91
2023-01-27T23:43:40.940Z,99867.13
2023-01-27T23:46:07.528Z,99868.75
2023-01-27T23:48:34.109Z,99869.81
2023-01-27T23:51:06.563Z,99872.25
2023-01-27T23:53:33.347Z,99880.97
2023-01-27T23:56:03.487Z,99877.47
2023-01-27T23:58:30.195Z,99874.03
